createdAt,value
2022-11-02T00:02:10.149Z,24.55
2022-11-02T00:04:37.039Z,25.15
2022-11-02T00:07:03.893Z,32.97
2022-11-02T00:09:30.774Z,33.97
2022-11-02T00:11:57.647Z,34.47
2022-11-02T00:14:24.598Z,37.50
2022-11-02T00:16:51.852Z,34.28
2022-11-02T00:19:18.856Z,34.00
2022-11-02T00:21:46.214Z,37.70
2022-11-02T00:24:13.412Z,38.35
2022-11-02T00:26:40.266Z,40.45
2022-11-02T00:29:08.452Z,41.42
2022-11-02T00:31:35.299Z,36.28
2022-11-02T00:34:02.193Z,36.30
2022-11-02T00:36:29.253Z,41.40
2022-11-02T00:38:56.145Z,43.33
2022-11-02T00:41:23.038Z,39.60
2022-11-02T00:43:49.876Z,42.35
2022-11-02T00:46:16.764Z,43.53
2022-11-02T00:48:43.608Z,44.72
2022-11-02T00:51:10.512Z,50.83
2022-11-02T00:53:37.374Z,45.63
2022-11-02T00:56:04.475Z,42.42
2022-11-02T00:58:31.348Z,49.72
2022-11-02T01:00:58.292Z,44.33
2022-11-02T01:03:25.232Z,51.55
2022-11-02T01:05:52.072Z,46.10
2022-11-02T01:08:18.977Z,52.67
2022-11-02T01:10:48.288Z,42.63
2022-11-02T01:13:15.679Z,48.60
2022-11-02T01:15:43.254Z,46.72
2022-11-02T01:18:10.100Z,44.08
2022-11-02T01:20:37.016Z,47.97
2022-11-02T01:23:04.000Z,49.03
2022-11-02T01:25:30.892Z,47.92
2022-11-02T01:27:57.781Z,53.33
2022-11-02T01:30:24.679Z,46.78
2022-11-02T01:32:51.539Z,50.67
2022-11-02T01:35:18.498Z,52.05
2022-11-02T01:37:45.458Z,43.50
2022-11-02T01:40:12.602Z,49.70
2022-11-02T01:42:39.489Z,51.25
2022-11-02T01:45:06.966Z,47.92
2022-11-02T01:47:39.317Z,48.30
2022-11-02T01:50:13.669Z,48.53
2022-11-02T01:55:29.432Z,44.42
2022-11-02T01:58:00.618Z,43.83
2022-11-02T02:00:27.685Z,48.50
2022-11-02T02:03:07.827Z,54.97
2022-11-02T02:05:40.373Z,49.28
2022-11-02T02:08:10.988Z,56.15
2022-11-02T02:10:38.075Z,52.05
2022-11-02T02:13:07.064Z,54.17
2022-11-02T02:15:55.485Z,54.50
2022-11-02T02:18:43.074Z,62.75
2022-11-02T02:21:38.866Z,54.72
2022-11-02T02:24:33.466Z,51.15
2022-11-02T02:27:00.362Z,63.78
2022-11-02T02:29:59.301Z,57.00
2022-11-02T02:32:37.705Z,55.45
2022-11-02T02:35:27.274Z,63.15
2022-11-02T02:38:03.862Z,64.93
2022-11-02T02:40:34.856Z,62.95
2022-11-02T02:43:15.733Z,64.38
2022-11-02T02:45:56.197Z,66.07
2022-11-02T02:48:25.645Z,64.70
2022-11-02T02:51:01.439Z,63.45
2022-11-02T02:53:34.281Z,65.10
2022-11-02T02:56:02.433Z,58.25
2022-11-02T02:58:38.235Z,53.97
2022-11-02T03:01:06.288Z,60.58
2022-11-02T03:03:34.869Z,68.50
2022-11-02T03:06:04.323Z,65.70
2022-11-02T03:08:32.016Z,66.07
2022-11-02T03:11:17.060Z,64.00
2022-11-02T03:14:11.047Z,65.47
2022-11-02T03:17:08.108Z,65.43
2022-11-02T03:19:42.575Z,65.43
2022-11-02T03:25:04.564Z,65.88
2022-11-02T03:27:51.930Z,56.13
2022-11-02T03:30:21.583Z,66.10
2022-11-02T03:33:07.215Z,65.22
2022-11-02T03:35:40.712Z,72.30
2022-11-02T03:38:21.433Z,80.73
2022-11-02T03:40:50.944Z,82.65
2022-11-02T03:43:20.481Z,74.07
2022-11-02T03:45:55.976Z,65.72
2022-11-02T03:48:27.364Z,65.30
2022-11-02T03:50:55.678Z,71.90
2022-11-02T03:53:22.763Z,66.15
2022-11-02T03:55:58.521Z,72.70
2022-11-02T03:58:25.429Z,61.60
2022-11-02T04:00:57.844Z,62.45
2022-11-02T04:03:25.563Z,66.00
2022-11-02T04:05:52.448Z,63.20
2022-11-02T04:08:40.774Z,68.93
2022-11-02T04:11:26.491Z,61.53
2022-11-02T04:14:11.879Z,63.88
2022-11-02T04:16:39.105Z,64.65
2022-11-02T04:19:24.460Z,60.97
2022-11-02T04:22:09.974Z,62.38
2022-11-02T04:24:55.379Z,56.83
2022-11-02T04:27:22.252Z,60.78
2022-11-02T04:29:49.564Z,58.85
2022-11-02T04:32:36.918Z,51.88
2022-11-02T04:35:04.740Z,52.90
2022-11-02T04:37:50.028Z,54.88
2022-11-02T04:40:17.750Z,53.60
2022-11-02T04:42:47.189Z,54.67
2022-11-02T04:45:14.094Z,53.78
2022-11-02T04:47:40.969Z,54.25
2022-11-02T04:50:08.160Z,56.35
2022-11-02T04:52:35.076Z,53.65
2022-11-02T04:55:02.018Z,56.25
2022-11-02T04:57:28.939Z,56.47
2022-11-02T04:59:55.835Z,58.20
2022-11-02T05:02:22.884Z,60.05
2022-11-02T05:04:49.838Z,55.35
2022-11-02T05:07:19.532Z,55.42
2022-11-02T05:09:46.443Z,56.35
2022-11-02T05:12:13.369Z,58.42
2022-11-02T05:14:40.707Z,51.13
2022-11-02T05:17:07.607Z,53.85
2022-11-02T05:19:34.477Z,55.60
2022-11-02T05:22:01.421Z,57.85
2022-11-02T05:24:28.404Z,56.65
2022-11-02T05:26:55.306Z,61.10
2022-11-02T05:29:22.180Z,62.70
2022-11-02T05:31:49.073Z,60.00
2022-11-02T05:34:15.927Z,60.60
2022-11-02T05:36:42.917Z,58.55
2022-11-02T05:39:09.865Z,55.40
2022-11-02T05:41:36.745Z,49.33
2022-11-02T05:44:03.629Z,53.67
2022-11-02T05:46:30.597Z,52.70
2022-11-02T05:48:57.477Z,50.58
2022-11-02T05:51:24.370Z,50.25
2022-11-02T05:53:51.415Z,53.85
2022-11-02T05:56:23.675Z,51.70
2022-11-02T06:01:24.405Z,57.83
2022-11-02T06:03:53.633Z,49.30
2022-11-02T06:06:21.017Z,50.90
2022-11-02T06:08:47.941Z,53.70
2022-11-02T06:11:15.481Z,58.25
2022-11-02T06:13:42.631Z,57.40
2022-11-02T06:16:11.457Z,56.58
2022-11-02T06:18:39.473Z,55.60
2022-11-02T06:21:06.588Z,53.08
2022-11-02T06:23:34.032Z,46.88
2022-11-02T06:26:01.723Z,50.70
2022-11-02T06:28:29.820Z,55.65
2022-11-02T06:30:57.351Z,46.58
2022-11-02T06:33:24.574Z,47.30
2022-11-02T06:35:53.421Z,45.05
2022-11-02T06:38:20.848Z,43.72
2022-11-02T06:40:58.483Z,50.13
2022-11-02T06:43:26.359Z,45.90
2022-11-02T06:45:57.985Z,44.33
2022-11-02T06:48:29.816Z,47.95
2022-11-02T06:51:01.727Z,45.15
2022-11-02T06:53:28.732Z,45.25
2022-11-02T06:55:57.456Z,45.67
2022-11-02T06:58:26.410Z,46.20
2022-11-02T07:04:41.342Z,40.53
2022-11-02T07:07:08.231Z,39.75
2022-11-02T07:09:35.168Z,40.03
2022-11-02T07:12:02.174Z,38.50
2022-11-02T07:14:29.079Z,40.88
2022-11-02T07:16:56.748Z,39.20
2022-11-02T07:19:23.682Z,36.13
2022-11-02T07:21:50.534Z,39.10
2022-11-02T07:24:17.430Z,32.20
2022-11-02T07:26:44.590Z,32.85
2022-11-02T07:29:11.496Z,33.60
2022-11-02T07:31:38.481Z,28.98
2022-11-02T07:34:05.359Z,29.77
2022-11-02T07:40:20.006Z,27.08
2022-11-02T07:42:47.006Z,30.25
2022-11-02T07:45:14.164Z,24.73
2022-11-02T07:47:48.219Z,27.42
2022-11-02T07:50:17.826Z,30.40
2022-11-02T07:56:31.908Z,25.08
2022-11-02T07:58:58.846Z,25.88
2022-11-02T08:01:25.826Z,22.17
2022-11-02T08:03:53.062Z,23.13
2022-11-02T08:06:20.009Z,19.63
2022-11-02T08:08:46.915Z,19.63
2022-11-02T08:11:13.845Z,22.95
2022-11-02T08:13:40.732Z,21.48
2022-11-02T08:16:07.922Z,16.92
2022-11-02T08:18:34.825Z,18.33
2022-11-02T08:21:01.806Z,19.67
2022-11-02T08:23:28.685Z,20.42
2022-11-02T08:25:59.270Z,19.55
2022-11-02T08:28:28.657Z,18.23
2022-11-02T08:30:55.734Z,21.55
2022-11-02T08:33:22.618Z,21.00
2022-11-02T08:35:49.779Z,21.45
2022-11-02T08:38:17.584Z,22.98
2022-11-02T08:40:45.082Z,22.67
2022-11-02T08:43:13.845Z,24.13
2022-11-02T08:46:13.402Z,24.83
2022-11-02T08:48:30.636Z,27.77
2022-11-02T08:50:57.681Z,25.17
2022-11-02T08:53:24.627Z,26.40
2022-11-02T08:55:51.511Z,36.38
2022-11-02T08:58:18.654Z,32.65
2022-11-02T09:00:45.813Z,27.92
2022-11-02T09:03:15.527Z,26.50
2022-11-02T09:05:44.657Z,22.02
2022-11-02T09:08:19.684Z,23.63
2022-11-02T09:10:50.651Z,19.67
2022-11-02T09:13:20.936Z,22.95
2022-11-02T09:15:51.493Z,21.08
2022-11-02T09:18:18.452Z,21.33
2022-11-02T09:20:46.588Z,18.58
2022-11-02T09:23:13.525Z,17.88
2022-11-02T09:25:40.386Z,15.77
2022-11-02T09:28:07.785Z,18.67
2022-11-02T09:30:35.090Z,14.02
2022-11-02T09:33:06.945Z,13.98
2022-11-02T09:35:36.678Z,13.75
2022-11-02T09:38:03.971Z,16.15
2022-11-02T09:40:40.079Z,13.48
2022-11-02T09:43:32.678Z,15.40
2022-11-02T09:46:40.410Z,13.05
2022-11-02T09:49:22.463Z,12.23
2022-11-02T09:51:56.107Z,8.93
2022-11-02T09:54:46.094Z,16.58
2022-11-02T09:57:29.401Z,10.10
2022-11-02T09:59:57.006Z,11.85
2022-11-02T10:02:43.046Z,16.52
2022-11-02T10:05:30.385Z,9.20
2022-11-02T10:08:25.123Z,10.75
2022-11-02T10:11:08.250Z,12.60
2022-11-02T10:13:35.422Z,13.15
2022-11-02T10:16:19.726Z,9.00
2022-11-02T10:18:50.118Z,8.43
2022-11-02T10:21:22.003Z,10.38
2022-11-02T10:23:54.017Z,9.70
2022-11-02T10:26:34.614Z,13.93
2022-11-02T10:29:27.576Z,8.80
2022-11-02T10:31:54.450Z,10.88
2022-11-02T10:34:27.321Z,8.40
2022-11-02T10:37:09.413Z,9.68
2022-11-02T10:39:42.865Z,9.23
2022-11-02T10:42:43.847Z,11.37
2022-11-02T10:45:25.949Z,11.05
2022-11-02T10:47:59.199Z,9.65
2022-11-02T10:50:41.459Z,10.70
2022-11-02T10:53:39.360Z,10.13
2022-11-02T11:00:25.374Z,9.60
2022-11-02T11:03:05.825Z,9.05
2022-11-02T11:05:36.238Z,19.35
2022-11-02T11:08:04.586Z,12.95
2022-11-02T11:10:38.248Z,12.95
2022-11-02T11:13:07.775Z,9.02
2022-11-02T11:15:50.678Z,11.25
2022-11-02T11:21:08.849Z,16.58
2022-11-02T11:23:35.839Z,10.25
2022-11-02T11:26:05.729Z,10.82
2022-11-02T11:32:30.590Z,13.93
2022-11-02T11:35:02.254Z,13.20
2022-11-02T11:37:29.695Z,15.10
2022-11-02T11:40:05.145Z,11.40
2022-11-02T11:42:35.420Z,14.52
2022-11-02T11:45:06.940Z,16.55
2022-11-02T11:47:40.052Z,15.23
2022-11-02T11:50:21.796Z,14.18
2022-11-02T11:53:18.188Z,19.13
2022-11-02T11:55:53.450Z,15.98
2022-11-02T11:58:25.450Z,20.83
2022-11-02T12:01:10.795Z,25.13
2022-11-02T12:04:00.501Z,23.27
2022-11-02T12:06:36.167Z,18.67
2022-11-02T12:09:34.108Z,20.25
2022-11-02T12:12:25.848Z,18.17
2022-11-02T12:15:11.486Z,20.15
2022-11-02T12:17:47.518Z,17.25
2022-11-02T12:20:17.664Z,20.08
2022-11-02T12:23:13.680Z,16.23
2022-11-02T12:26:05.004Z,21.38
2022-11-02T12:28:55.724Z,19.83
2022-11-02T12:32:00.761Z,20.42
2022-11-02T12:37:54.534Z,19.55
2022-11-02T12:40:39.367Z,19.90
2022-11-02T12:43:27.573Z,22.15
2022-11-02T12:46:04.388Z,19.73
2022-11-02T12:49:17.629Z,21.33
2022-11-02T12:51:52.125Z,18.25
2022-11-02T12:54:27.578Z,18.55
2022-11-02T12:56:55.382Z,14.90
2022-11-02T12:59:26.543Z,18.45
2022-11-02T13:02:18.084Z,15.90
2022-11-02T13:05:09.690Z,17.05
2022-11-02T13:07:48.759Z,16.33
2022-11-02T13:13:59.188Z,16.20
2022-11-02T13:16:51.559Z,11.80
2022-11-02T13:19:34.729Z,14.98
2022-11-02T13:22:04.125Z,15.13
2022-11-02T13:24:37.046Z,12.02
2022-11-02T13:27:21.705Z,14.00
2022-11-02T13:29:58.500Z,13.52
2022-11-02T13:32:54.681Z,19.23
2022-11-02T13:35:36.228Z,16.30
2022-11-02T13:38:33.832Z,11.52
2022-11-02T13:41:19.188Z,14.63
2022-11-02T13:43:58.172Z,18.85
2022-11-02T13:47:00.614Z,16.05
2022-11-02T13:49:31.040Z,13.20
2022-11-02T13:52:04.115Z,17.45
2022-11-02T13:54:39.070Z,15.40
2022-11-02T13:57:06.121Z,16.02
2022-11-02T13:59:43.132Z,16.05
2022-11-02T14:02:16.732Z,14.55
2022-11-02T14:04:44.596Z,14.13
2022-11-02T14:07:40.490Z,12.20
2022-11-02T14:10:17.659Z,16.38
2022-11-02T14:12:49.244Z,15.48
2022-11-02T14:15:16.143Z,15.52
2022-11-02T14:17:55.352Z,16.35
2022-11-02T14:20:43.580Z,11.85
2022-11-02T14:23:10.753Z,16.15
2022-11-02T14:25:53.773Z,13.70
2022-11-02T14:28:25.726Z,11.15
2022-11-02T14:31:04.526Z,11.32
2022-11-02T14:33:56.299Z,12.60
2022-11-02T14:36:43.797Z,15.18
2022-11-02T14:39:55.683Z,15.20
2022-11-02T14:42:41.469Z,11.25
2022-11-02T14:45:26.018Z,15.38
2022-11-02T14:48:05.477Z,13.60
2022-11-02T14:50:33.145Z,13.13
2022-11-02T14:53:10.191Z,11.05
2022-11-02T14:55:39.142Z,13.05
2022-11-02T14:58:14.803Z,12.18
2022-11-02T15:00:47.944Z,14.40
2022-11-02T15:06:58.116Z,13.73
2022-11-02T15:09:54.613Z,13.05
2022-11-02T15:12:27.142Z,16.00
2022-11-02T15:15:19.447Z,11.07
2022-11-02T15:17:58.227Z,11.05
2022-11-02T15:20:34.657Z,12.68
2022-11-02T15:23:40.133Z,15.88
2022-11-02T15:26:11.535Z,13.93
2022-11-02T15:28:39.151Z,18.25
2022-11-02T15:31:15.135Z,14.88
2022-11-02T15:33:45.838Z,12.85
2022-11-02T15:36:22.047Z,11.80
2022-11-02T15:38:51.643Z,15.95
2022-11-02T15:41:50.672Z,11.35
2022-11-02T15:44:41.463Z,14.70
2022-11-02T15:47:20.427Z,14.90
2022-11-02T15:50:02.308Z,15.57
2022-11-02T15:53:22.282Z,17.63
2022-11-02T15:56:03.779Z,13.60
2022-11-02T15:58:39.734Z,17.85
2022-11-02T16:01:28.563Z,13.57
2022-11-02T16:04:02.066Z,13.80
2022-11-02T16:06:29.073Z,12.87
2022-11-02T16:08:59.651Z,11.68
2022-11-02T16:11:27.301Z,18.92
2022-11-02T16:14:13.482Z,15.68
2022-11-02T16:16:48.977Z,12.10
2022-11-02T16:19:22.452Z,13.02
2022-11-02T16:21:50.105Z,14.13
2022-11-02T16:24:18.294Z,11.43
2022-11-02T16:26:46.598Z,14.52
2022-11-02T16:29:26.734Z,12.60
2022-11-02T16:31:53.794Z,14.07
2022-11-02T16:34:29.979Z,11.15
2022-11-02T16:36:58.128Z,14.60
2022-11-02T16:39:30.426Z,13.23
2022-11-02T16:42:00.045Z,16.10
2022-11-02T16:44:32.386Z,14.02
2022-11-02T16:47:15.688Z,15.52
2022-11-02T16:50:03.557Z,13.05
2022-11-02T16:52:36.162Z,12.55
2022-11-02T16:55:23.234Z,14.65
2022-11-02T16:57:50.295Z,12.15
2022-11-02T17:00:20.097Z,13.18
2022-11-02T17:02:47.691Z,10.45
2022-11-02T17:05:16.541Z,11.63
2022-11-02T17:07:50.115Z,11.68
2022-11-02T17:10:24.171Z,16.60
2022-11-02T17:12:51.308Z,16.95
2022-11-02T17:15:24.313Z,14.00
2022-11-02T17:18:16.742Z,13.85
2022-11-02T17:20:43.694Z,15.30
2022-11-02T17:23:29.080Z,16.45
2022-11-02T17:26:15.871Z,21.20
2022-11-02T17:28:46.039Z,19.33
2022-11-02T17:31:34.701Z,20.67
2022-11-02T17:34:17.643Z,18.27
2022-11-02T17:36:46.277Z,18.38
2022-11-02T17:39:15.104Z,15.90
2022-11-02T17:42:07.627Z,16.80
2022-11-02T17:44:34.528Z,18.40
2022-11-02T17:47:01.611Z,13.55
2022-11-02T17:49:28.565Z,17.63
2022-11-02T17:51:55.483Z,15.80
2022-11-02T17:54:22.567Z,15.65
2022-11-02T18:04:36.276Z,20.40
2022-11-02T18:07:03.235Z,22.13
2022-11-02T18:09:30.384Z,20.48
2022-11-02T18:11:57.247Z,17.48
2022-11-02T18:14:24.171Z,18.00
2022-11-02T18:16:52.894Z,21.55
2022-11-02T18:19:19.865Z,21.27
2022-11-02T18:21:46.730Z,18.63
2022-11-02T18:28:02.286Z,16.23
2022-11-02T18:30:30.077Z,31.58
2022-11-02T18:32:57.481Z,24.27
2022-11-02T18:35:25.341Z,18.77
2022-11-02T18:37:52.451Z,28.13
2022-11-02T18:40:20.625Z,22.88
2022-11-02T18:42:47.737Z,26.88
2022-11-02T18:45:15.947Z,17.52
2022-11-02T18:47:43.474Z,20.23
2022-11-02T18:50:12.821Z,19.33
2022-11-02T18:52:40.345Z,22.10
2022-11-02T18:55:08.025Z,15.02
2022-11-02T18:57:35.263Z,21.75
2022-11-02T19:00:03.062Z,15.05
2022-11-02T19:02:30.350Z,18.15
2022-11-02T19:04:57.500Z,16.65
2022-11-02T19:07:42.787Z,16.50
2022-11-02T19:10:10.346Z,22.27
2022-11-02T19:12:37.799Z,14.35
2022-11-02T19:15:05.197Z,16.17
2022-11-02T19:17:32.143Z,13.75
2022-11-02T19:19:59.164Z,18.55
2022-11-02T19:22:26.872Z,17.98
2022-11-02T19:24:53.883Z,15.95
2022-11-02T19:27:25.420Z,17.85
2022-11-02T19:29:52.569Z,14.55
2022-11-02T19:32:19.918Z,18.70
2022-11-02T19:34:47.101Z,16.58
2022-11-02T19:37:14.148Z,16.55
2022-11-02T19:39:41.428Z,16.90
2022-11-02T19:42:08.465Z,14.00
2022-11-02T19:44:42.093Z,19.77
2022-11-02T19:47:10.195Z,14.40
2022-11-02T19:49:37.253Z,15.57
2022-11-02T19:52:04.514Z,17.27
2022-11-02T19:54:31.452Z,27.65
2022-11-02T19:56:58.429Z,20.50
2022-11-02T19:59:25.378Z,19.92
2022-11-02T20:01:52.556Z,16.30
2022-11-02T20:04:19.897Z,16.27
2022-11-02T20:06:46.829Z,12.75
2022-11-02T20:09:16.651Z,17.30
2022-11-02T20:15:31.052Z,15.57
2022-11-02T20:18:17.761Z,13.77
2022-11-02T20:20:44.935Z,13.27
2022-11-02T20:23:11.866Z,18.83
2022-11-02T20:25:38.845Z,14.88
2022-11-02T20:28:06.085Z,20.20
2022-11-02T20:30:33.410Z,13.95
2022-11-02T20:33:00.413Z,15.60
2022-11-02T20:35:27.346Z,13.20
2022-11-02T20:37:54.727Z,15.73
2022-11-02T20:40:22.579Z,12.82
2022-11-02T20:42:50.430Z,13.05
2022-11-02T20:45:18.455Z,12.55
2022-11-02T20:47:45.416Z,11.73
2022-11-02T20:50:16.447Z,12.02
2022-11-02T20:52:45.361Z,14.60
2022-11-02T20:55:12.302Z,13.82
2022-11-02T20:57:39.219Z,18.42
2022-11-02T21:00:06.803Z,20.05
2022-11-02T21:02:33.844Z,17.27
2022-11-02T21:05:00.940Z,20.60
2022-11-02T21:07:27.804Z,13.02
2022-11-02T21:09:54.851Z,12.02
2022-11-02T21:12:40.146Z,10.30
2022-11-02T21:15:07.778Z,10.52
2022-11-02T21:17:35.322Z,10.27
2022-11-02T21:20:28.397Z,11.07
2022-11-02T21:22:52.251Z,12.45
2022-11-02T21:25:19.191Z,12.23
2022-11-02T21:27:50.659Z,9.35
2022-11-02T21:30:18.528Z,9.93
2022-11-02T21:32:45.428Z,10.90
2022-11-02T21:35:12.308Z,8.88
2022-11-02T21:37:39.179Z,6.97
2022-11-02T21:40:06.698Z,7.50
2022-11-02T21:42:33.580Z,8.38
2022-11-02T21:45:00.562Z,8.15
2022-11-02T21:47:34.145Z,6.18
2022-11-02T21:50:11.347Z,6.03
2022-11-02T21:52:41.094Z,7.38
2022-11-02T21:55:11.650Z,7.15
2022-11-02T21:57:38.588Z,9.57
2022-11-02T22:00:06.013Z,7.07
2022-11-02T22:02:32.942Z,9.73
2022-11-02T22:04:59.880Z,7.22
2022-11-02T22:07:26.771Z,29.20
2022-11-02T22:09:53.806Z,23.02
2022-11-02T22:12:39.360Z,38.45
2022-11-02T22:15:06.981Z,25.33
2022-11-02T22:17:49.082Z,7.90
2022-11-02T22:20:17.266Z,9.45
2022-11-02T22:22:44.171Z,9.93
2022-11-02T22:25:11.049Z,7.80
2022-11-02T22:27:37.923Z,8.77
2022-11-02T22:30:05.407Z,8.82
2022-11-02T22:32:32.264Z,10.95
2022-11-02T22:34:59.146Z,7.38
2022-11-02T22:37:44.552Z,9.68
2022-11-02T22:40:11.581Z,9.13
2022-11-02T22:42:41.499Z,8.18
2022-11-02T22:45:10.226Z,7.78
2022-11-02T22:47:37.157Z,6.50
2022-11-02T22:50:04.430Z,9.43
2022-11-02T22:52:31.302Z,6.93
2022-11-02T22:54:58.157Z,8.48
2022-11-02T22:57:25.053Z,10.23
2022-11-02T22:59:51.976Z,7.22
2022-11-02T23:02:18.950Z,8.23
2022-11-02T23:04:45.821Z,8.57
2022-11-02T23:07:12.837Z,6.10
2022-11-02T23:09:39.833Z,11.23
2022-11-02T23:12:06.929Z,8.18
2022-11-02T23:14:33.779Z,7.43
2022-11-02T23:17:00.666Z,10.90
2022-11-02T23:19:30.306Z,8.52
2022-11-02T23:22:23.097Z,5.40
2022-11-02T23:25:10.417Z,8.00
2022-11-02T23:28:02.646Z,5.55
2022-11-02T23:30:50.717Z,6.93
2022-11-02T23:33:18.583Z,5.10
2022-11-02T23:36:04.083Z,6.47
2022-11-02T23:38:49.476Z,6.70
2022-11-02T23:41:17.742Z,8.38
2022-11-02T23:43:44.934Z,4.68
2022-11-02T23:46:11.869Z,9.35
2022-11-02T23:48:40.879Z,19.42
2022-11-02T23:51:27.124Z,12.18
2022-11-02T23:54:20.009Z,11.85
2022-11-02T23:56:47.003Z,8.38
2022-11-02T23:59:16.602Z,4.55
